sensor_id;sensor_type;location;lat;lon;timestamp;temperature;humidity
67881;SHT31;54680;52.486;-1.890;2024-02-23T00:01:44;2.58;89.07
67881;SHT31;54680;52.486;-1.890;2024-02-23T00:04:10;2.61;89.10
67881;SHT31;54680;52.486;-1.890;2024-02-23T00:06:35;2.71;88.70
67881;SHT31;54680;52.486;-1.890;2024-02-23T00:09:01;2.74;88.51
67881;SHT31;54680;52.486;-1.890;2024-02-23T00:11:26;2.71;88.44
67881;SHT31;54680;52.486;-1.890;2024-02-23T00:16:28;2.84;88.34
67881;SHT31;54680;52.486;-1.890;2024-02-23T00:18:54;2.70;89.20
67881;SHT31;54680;52.486;-1.890;2024-02-23T00:21:19;2.81;88.44
67881;SHT31;54680;52.486;-1.890;2024-02-23T00:23:45;2.84;88.39
67881;SHT31;54680;52.486;-1.890;2024-02-23T00:26:10;2.84;88.70
67881;SHT31;54680;52.486;-1.890;2024-02-23T00:28:36;2.96;87.79
67881;SHT31;54680;52.486;-1.890;2024-02-23T00:31:01;2.87;88.32
67881;SHT31;54680;52.486;-1.890;2024-02-23T00:33:27;3.06;87.54
67881;SHT31;54680;52.486;-1.890;2024-02-23T00:35:52;3.08;87.60
67881;SHT31;54680;52.486;-1.890;2024-02-23T00:38:18;2.96;88.38
67881;SHT31;54680;52.486;-1.890;2024-02-23T00:40:44;2.91;88.60
67881;SHT31;54680;52.486;-1.890;2024-02-23T00:43:09;2.99;88.24
67881;SHT31;54680;52.486;-1.890;2024-02-23T00:45:35;2.92;88.73
67881;SHT31;54680;52.486;-1.890;2024-02-23T00:48:00;2.89;88.72
67881;SHT31;54680;52.486;-1.890;2024-02-23T00:50:26;2.87;89.21
67881;SHT31;54680;52.486;-1.890;2024-02-23T00:52:52;2.91;89.07
67881;SHT31;54680;52.486;-1.890;2024-02-23T00:55:18;2.93;89.20
67881;SHT31;54680;52.486;-1.890;2024-02-23T00:57:44;2.98;89.44
67881;SHT31;54680;52.486;-1.890;2024-02-23T01:00:33;3.03;89.45
67881;SHT31;54680;52.486;-1.890;2024-02-23T01:02:58;3.06;89.39
67881;SHT31;54680;52.486;-1.890;2024-02-23T01:05:25;3.08;90.28
67881;SHT31;54680;52.486;-1.890;2024-02-23T01:07:52;3.19;91.67
67881;SHT31;54680;52.486;-1.890;2024-02-23T01:10:17;3.06;90.19
67881;SHT31;54680;52.486;-1.890;2024-02-23T01:12:43;3.08;90.55
67881;SHT31;54680;52.486;-1.890;2024-02-23T01:15:08;3.03;91.18
67881;SHT31;54680;52.486;-1.890;2024-02-23T01:17:34;3.12;90.94
67881;SHT31;54680;52.486;-1.890;2024-02-23T01:20:00;3.12;90.64
67881;SHT31;54680;52.486;-1.890;2024-02-23T01:22:25;3.13;90.93
67881;SHT31;54680;52.486;-1.890;2024-02-23T01:24:57;3.18;90.96
67881;SHT31;54680;52.486;-1.890;2024-02-23T01:27:22;3.11;91.63
67881;SHT31;54680;52.486;-1.890;2024-02-23T01:29:48;3.11;91.84
67881;SHT31;54680;52.486;-1.890;2024-02-23T01:32:13;3.15;92.04
67881;SHT31;54680;52.486;-1.890;2024-02-23T01:34:39;3.23;92.03
67881;SHT31;54680;52.486;-1.890;2024-02-23T01:37:04;3.23;92.39
67881;SHT31;54680;52.486;-1.890;2024-02-23T01:39:30;3.27;92.22
67881;SHT31;54680;52.486;-1.890;2024-02-23T01:41:56;3.29;92.47
67881;SHT31;54680;52.486;-1.890;2024-02-23T01:44:22;3.36;92.48
67881;SHT31;54680;52.486;-1.890;2024-02-23T01:46:49;3.35;93.01
67881;SHT31;54680;52.486;-1.890;2024-02-23T01:49:15;3.46;94.75
67881;SHT31;54680;52.486;-1.890;2024-02-23T01:51:41;3.46;93.35
67881;SHT31;54680;52.486;-1.890;2024-02-23T01:54:07;3.40;93.56
67881;SHT31;54680;52.486;-1.890;2024-02-23T01:56:34;3.40;93.52
67881;SHT31;54680;52.486;-1.890;2024-02-23T01:59:02;3.39;93.75
67881;SHT31;54680;52.486;-1.890;2024-02-23T02:01:29;3.43;93.47
67881;SHT31;54680;52.486;-1.890;2024-02-23T02:03:55;3.46;93.02
67881;SHT31;54680;52.486;-1.890;2024-02-23T02:06:22;3.53;92.32
67881;SHT31;54680;52.486;-1.890;2024-02-23T02:08:47;3.47;92.55
67881;SHT31;54680;52.486;-1.890;2024-02-23T02:11:13;3.39;92.61
67881;SHT31;54680;52.486;-1.890;2024-02-23T02:13:38;3.43;92.72
67881;SHT31;54680;52.486;-1.890;2024-02-23T02:16:04;3.43;94.32
67881;SHT31;54680;52.486;-1.890;2024-02-23T02:18:31;3.50;93.14
67881;SHT31;54680;52.486;-1.890;2024-02-23T02:20:57;3.50;93.56
67881;SHT31;54680;52.486;-1.890;2024-02-23T02:23:23;3.49;93.88
67881;SHT31;54680;52.486;-1.890;2024-02-23T02:25:53;3.46;94.20
67881;SHT31;54680;52.486;-1.890;2024-02-23T02:28:18;3.49;93.97
67881;SHT31;54680;52.486;-1.890;2024-02-23T02:30:44;3.49;93.98
67881;SHT31;54680;52.486;-1.890;2024-02-23T02:33:09;3.52;94.17
67881;SHT31;54680;52.486;-1.890;2024-02-23T02:35:35;3.47;94.06
67881;SHT31;54680;52.486;-1.890;2024-02-23T02:38:00;3.50;94.70
67881;SHT31;54680;52.486;-1.890;2024-02-23T02:40:25;3.46;94.59
67881;SHT31;54680;52.486;-1.890;2024-02-23T02:42:51;3.46;93.94
67881;SHT31;54680;52.486;-1.890;2024-02-23T02:45:16;3.37;94.26
67881;SHT31;54680;52.486;-1.890;2024-02-23T02:47:42;3.37;94.77
67881;SHT31;54680;52.486;-1.890;2024-02-23T02:50:08;3.35;93.33
67881;SHT31;54680;52.486;-1.890;2024-02-23T02:52:34;3.37;92.79
67881;SHT31;54680;52.486;-1.890;2024-02-23T02:54:59;3.36;92.78
67881;SHT31;54680;52.486;-1.890;2024-02-23T02:57:25;3.40;92.01
67881;SHT31;54680;52.486;-1.890;2024-02-23T02:59:51;3.37;94.71
67881;SHT31;54680;52.486;-1.890;2024-02-23T03:02:17;3.44;93.51
67881;SHT31;54680;52.486;-1.890;2024-02-23T03:04:48;3.32;92.58
67881;SHT31;54680;52.486;-1.890;2024-02-23T03:07:15;3.18;92.77
67881;SHT31;54680;52.486;-1.890;2024-02-23T03:09:41;3.13;93.10
67881;SHT31;54680;52.486;-1.890;2024-02-23T03:12:08;3.03;94.63
67881;SHT31;54680;52.486;-1.890;2024-02-23T03:14:33;3.02;93.45
67881;SHT31;54680;52.486;-1.890;2024-02-23T03:16:59;3.02;94.84
67881;SHT31;54680;52.486;-1.890;2024-02-23T03:19:25;2.93;95.37
67881;SHT31;54680;52.486;-1.890;2024-02-23T03:21:51;2.92;93.77
67881;SHT31;54680;52.486;-1.890;2024-02-23T03:24:17;2.92;93.67
67881;SHT31;54680;52.486;-1.890;2024-02-23T03:26:42;2.84;94.33
67881;SHT31;54680;52.486;-1.890;2024-02-23T03:29:09;2.88;93.47
67881;SHT31;54680;52.486;-1.890;2024-02-23T03:31:35;2.89;94.16
67881;SHT31;54680;52.486;-1.890;2024-02-23T03:34:01;2.96;93.45
67881;SHT31;54680;52.486;-1.890;2024-02-23T03:36:27;3.09;96.71
67881;SHT31;54680;52.486;-1.890;2024-02-23T03:38:52;2.99;93.19
67881;SHT31;54680;52.486;-1.890;2024-02-23T03:41:18;2.93;93.55
67881;SHT31;54680;52.486;-1.890;2024-02-23T03:43:43;2.87;93.71
67881;SHT31;54680;52.486;-1.890;2024-02-23T03:46:08;2.82;95.35
67881;SHT31;54680;52.486;-1.890;2024-02-23T03:48:34;2.81;93.62
67881;SHT31;54680;52.486;-1.890;2024-02-23T03:51:03;2.68;93.90
67881;SHT31;54680;52.486;-1.890;2024-02-23T03:53:28;2.70;94.34
67881;SHT31;54680;52.486;-1.890;2024-02-23T03:55:54;2.61;94.63
67881;SHT31;54680;52.486;-1.890;2024-02-23T03:58:19;2.64;95.45
67881;SHT31;54680;52.486;-1.890;2024-02-23T04:00:45;2.74;95.19
67881;SHT31;54680;52.486;-1.890;2024-02-23T04:03:10;2.64;94.32
67881;SHT31;54680;52.486;-1.890;2024-02-23T04:05:36;2.57;94.54
67881;SHT31;54680;52.486;-1.890;2024-02-23T04:08:01;2.64;95.30
67881;SHT31;54680;52.486;-1.890;2024-02-23T04:10:27;2.57;95.31
67881;SHT31;54680;52.486;-1.890;2024-02-23T04:12:52;2.52;94.68
67881;SHT31;54680;52.486;-1.890;2024-02-23T04:15:17;2.55;94.31
67881;SHT31;54680;52.486;-1.890;2024-02-23T04:17:43;2.65;94.39
67881;SHT31;54680;52.486;-1.890;2024-02-23T04:20:09;2.52;94.61
67881;SHT31;54680;52.486;-1.890;2024-02-23T04:22:37;2.45;94.46
67881;SHT31;54680;52.486;-1.890;2024-02-23T04:25:04;2.55;97.20
67881;SHT31;54680;52.486;-1.890;2024-02-23T04:27:30;2.41;94.58
67881;SHT31;54680;52.486;-1.890;2024-02-23T04:29:55;2.48;94.78
67881;SHT31;54680;52.486;-1.890;2024-02-23T04:32:21;2.60;94.64
67881;SHT31;54680;52.486;-1.890;2024-02-23T04:34:47;2.45;94.12
67881;SHT31;54680;52.486;-1.890;2024-02-23T04:37:12;2.38;94.22
67881;SHT31;54680;52.486;-1.890;2024-02-23T04:39:37;2.44;94.79
67881;SHT31;54680;52.486;-1.890;2024-02-23T04:42:04;2.44;94.87
67881;SHT31;54680;52.486;-1.890;2024-02-23T04:44:29;2.52;95.30
67881;SHT31;54680;52.486;-1.890;2024-02-23T04:46:55;2.44;94.50
67881;SHT31;54680;52.486;-1.890;2024-02-23T04:49:20;2.33;94.70
67881;SHT31;54680;52.486;-1.890;2024-02-23T04:51:46;2.27;94.45
67881;SHT31;54680;52.486;-1.890;2024-02-23T04:54:11;2.30;94.55
67881;SHT31;54680;52.486;-1.890;2024-02-23T04:56:36;2.29;94.44
67881;SHT31;54680;52.486;-1.890;2024-02-23T04:59:02;2.45;93.60
67881;SHT31;54680;52.486;-1.890;2024-02-23T05:01:28;2.38;98.02
67881;SHT31;54680;52.486;-1.890;2024-02-23T05:03:54;2.38;93.63
67881;SHT31;54680;52.486;-1.890;2024-02-23T05:06:19;2.33;94.61
67881;SHT31;54680;52.486;-1.890;2024-02-23T05:08:44;2.44;95.30
67881;SHT31;54680;52.486;-1.890;2024-02-23T05:11:10;2.40;93.92
67881;SHT31;54680;52.486;-1.890;2024-02-23T05:13:35;2.50;93.80
67881;SHT31;54680;52.486;-1.890;2024-02-23T05:16:02;2.51;96.65
67881;SHT31;54680;52.486;-1.890;2024-02-23T05:18:27;2.41;93.39
67881;SHT31;54680;52.486;-1.890;2024-02-23T05:20:53;2.54;93.13
67881;SHT31;54680;52.486;-1.890;2024-02-23T05:23:18;2.45;93.13
67881;SHT31;54680;52.486;-1.890;2024-02-23T05:25:44;2.41;93.56
67881;SHT31;54680;52.486;-1.890;2024-02-23T05:28:09;2.37;93.49
67881;SHT31;54680;52.486;-1.890;2024-02-23T05:30:35;2.26;94.06
67881;SHT31;54680;52.486;-1.890;2024-02-23T05:33:00;2.17;94.35
67881;SHT31;54680;52.486;-1.890;2024-02-23T05:35:29;2.05;95.00
67881;SHT31;54680;52.486;-1.890;2024-02-23T05:37:54;2.05;95.06
67881;SHT31;54680;52.486;-1.890;2024-02-23T05:40:21;2.10;95.17
67881;SHT31;54680;52.486;-1.890;2024-02-23T05:42:46;2.03;95.26
67881;SHT31;54680;52.486;-1.890;2024-02-23T05:45:12;2.13;95.40
67881;SHT31;54680;52.486;-1.890;2024-02-23T05:47:38;2.14;95.16
67881;SHT31;54680;52.486;-1.890;2024-02-23T05:50:04;2.29;95.35
67881;SHT31;54680;52.486;-1.890;2024-02-23T05:52:33;2.30;95.40
67881;SHT31;54680;52.486;-1.890;2024-02-23T05:54:59;2.30;94.54
67881;SHT31;54680;52.486;-1.890;2024-02-23T05:57:28;2.43;96.24
67881;SHT31;54680;52.486;-1.890;2024-02-23T05:59:54;2.43;96.12
67881;SHT31;54680;52.486;-1.890;2024-02-23T06:02:21;2.40;94.30
67881;SHT31;54680;52.486;-1.890;2024-02-23T06:04:46;2.48;94.01
67881;SHT31;54680;52.486;-1.890;2024-02-23T06:07:13;2.50;94.74
67881;SHT31;54680;52.486;-1.890;2024-02-23T06:09:38;2.51;94.58
67881;SHT31;54680;52.486;-1.890;2024-02-23T06:12:05;2.54;94.19
67881;SHT31;54680;52.486;-1.890;2024-02-23T06:14:30;2.66;95.59
67881;SHT31;54680;52.486;-1.890;2024-02-23T06:16:56;2.55;93.92
67881;SHT31;54680;52.486;-1.890;2024-02-23T06:19:21;2.54;94.30
67881;SHT31;54680;52.486;-1.890;2024-02-23T06:21:48;2.58;94.22
67881;SHT31;54680;52.486;-1.890;2024-02-23T06:24:14;2.61;93.90
67881;SHT31;54680;52.486;-1.890;2024-02-23T06:26:39;2.51;93.77
67881;SHT31;54680;52.486;-1.890;2024-02-23T06:29:05;2.52;93.93
67881;SHT31;54680;52.486;-1.890;2024-02-23T06:31:31;2.72;93.49
67881;SHT31;54680;52.486;-1.890;2024-02-23T06:33:58;2.58;94.33
67881;SHT31;54680;52.486;-1.890;2024-02-23T06:36:24;2.50;93.54
67881;SHT31;54680;52.486;-1.890;2024-02-23T06:38:49;2.41;93.95
67881;SHT31;54680;52.486;-1.890;2024-02-23T06:41:15;2.36;94.19
67881;SHT31;54680;52.486;-1.890;2024-02-23T06:43:40;2.37;94.20
67881;SHT31;54680;52.486;-1.890;2024-02-23T06:46:07;2.37;94.34
67881;SHT31;54680;52.486;-1.890;2024-02-23T06:48:38;2.37;94.66
67881;SHT31;54680;52.486;-1.890;2024-02-23T06:51:07;2.43;94.41
67881;SHT31;54680;52.486;-1.890;2024-02-23T06:53:42;2.44;94.88
67881;SHT31;54680;52.486;-1.890;2024-02-23T06:56:12;2.48;94.47
67881;SHT31;54680;52.486;-1.890;2024-02-23T06:58:46;2.58;93.71
67881;SHT31;54680;52.486;-1.890;2024-02-23T07:01:12;2.61;93.77
67881;SHT31;54680;52.486;-1.890;2024-02-23T07:03:38;2.57;93.97
67881;SHT31;54680;52.486;-1.890;2024-02-23T07:06:05;2.60;94.07
67881;SHT31;54680;52.486;-1.890;2024-02-23T07:08:30;2.58;94.15
67881;SHT31;54680;52.486;-1.890;2024-02-23T07:10:56;2.66;93.99
67881;SHT31;54680;52.486;-1.890;2024-02-23T07:13:21;2.64;94.25
67881;SHT31;54680;52.486;-1.890;2024-02-23T07:15:47;2.70;93.85
67881;SHT31;54680;52.486;-1.890;2024-02-23T07:18:12;2.75;93.70
67881;SHT31;54680;52.486;-1.890;2024-02-23T07:20:38;2.80;93.60
67881;SHT31;54680;52.486;-1.890;2024-02-23T07:23:04;2.91;93.13
67881;SHT31;54680;52.486;-1.890;2024-02-23T07:25:30;2.93;93.23
67881;SHT31;54680;52.486;-1.890;2024-02-23T07:27:56;3.03;94.60
67881;SHT31;54680;52.486;-1.890;2024-02-23T07:30:21;3.15;92.22
67881;SHT31;54680;52.486;-1.890;2024-02-23T07:32:47;3.16;92.21
67881;SHT31;54680;52.486;-1.890;2024-02-23T07:35:12;3.12;93.81
67881;SHT31;54680;52.486;-1.890;2024-02-23T07:37:38;3.03;92.71
67881;SHT31;54680;52.486;-1.890;2024-02-23T07:40:04;3.25;91.91
67881;SHT31;54680;52.486;-1.890;2024-02-23T07:42:33;3.56;90.93
67881;SHT31;54680;52.486;-1.890;2024-02-23T07:45:01;3.88;89.66
67881;SHT31;54680;52.486;-1.890;2024-02-23T07:47:27;4.11;89.72
67881;SHT31;54680;52.486;-1.890;2024-02-23T07:49:53;4.36;87.84
67881;SHT31;54680;52.486;-1.890;2024-02-23T07:52:19;3.49;90.06
67881;SHT31;54680;52.486;-1.890;2024-02-23T07:54:44;3.52;90.52
67881;SHT31;54680;52.486;-1.890;2024-02-23T07:57:10;3.37;90.94
67881;SHT31;54680;52.486;-1.890;2024-02-23T07:59:35;3.66;89.93
67881;SHT31;54680;52.486;-1.890;2024-02-23T08:02:01;3.73;89.74
67881;SHT31;54680;52.486;-1.890;2024-02-23T08:04:26;3.64;89.53
67881;SHT31;54680;52.486;-1.890;2024-02-23T08:06:51;3.74;88.93
67881;SHT31;54680;52.486;-1.890;2024-02-23T08:09:17;3.83;89.27
67881;SHT31;54680;52.486;-1.890;2024-02-23T08:11:43;4.28;87.34
67881;SHT31;54680;52.486;-1.890;2024-02-23T08:14:08;4.12;88.69
67881;SHT31;54680;52.486;-1.890;2024-02-23T08:16:34;4.63;86.20
67881;SHT31;54680;52.486;-1.890;2024-02-23T08:18:59;4.70;86.70
67881;SHT31;54680;52.486;-1.890;2024-02-23T08:21:25;4.89;85.94
67881;SHT31;54680;52.486;-1.890;2024-02-23T08:23:51;4.90;85.75
67881;SHT31;54680;52.486;-1.890;2024-02-23T08:26:16;5.11;85.29
67881;SHT31;54680;52.486;-1.890;2024-02-23T08:28:42;5.83;81.65
67881;SHT31;54680;52.486;-1.890;2024-02-23T08:31:07;6.23;80.18
67881;SHT31;54680;52.486;-1.890;2024-02-23T08:33:33;6.48;78.11
67881;SHT31;54680;52.486;-1.890;2024-02-23T08:35:58;7.30;78.50
67881;SHT31;54680;52.486;-1.890;2024-02-23T08:38:23;6.29;79.50
67881;SHT31;54680;52.486;-1.890;2024-02-23T08:40:50;6.65;78.09
67881;SHT31;54680;52.486;-1.890;2024-02-23T08:43:16;7.62;76.30
67881;SHT31;54680;52.486;-1.890;2024-02-23T08:45:43;7.78;75.29
67881;SHT31;54680;52.486;-1.890;2024-02-23T08:48:09;8.11;73.95
67881;SHT31;54680;52.486;-1.890;2024-02-23T08:50:34;8.02;73.03
67881;SHT31;54680;52.486;-1.890;2024-02-23T08:53:00;7.77;74.17
67881;SHT31;54680;52.486;-1.890;2024-02-23T08:55:25;8.77;71.35
67881;SHT31;54680;52.486;-1.890;2024-02-23T08:57:50;9.24;69.63
67881;SHT31;54680;52.486;-1.890;2024-02-23T09:00:16;8.65;70.42
67881;SHT31;54680;52.486;-1.890;2024-02-23T09:02:42;8.20;72.01
67881;SHT31;54680;52.486;-1.890;2024-02-23T09:05:08;8.60;70.38
67881;SHT31;54680;52.486;-1.890;2024-02-23T09:07:34;9.74;67.86
67881;SHT31;54680;52.486;-1.890;2024-02-23T09:10:01;10.20;66.25
67881;SHT31;54680;52.486;-1.890;2024-02-23T09:12:27;10.43;63.98
67881;SHT31;54680;52.486;-1.890;2024-02-23T09:14:52;10.16;67.13
67881;SHT31;54680;52.486;-1.890;2024-02-23T09:17:18;10.65;64.21
67881;SHT31;54680;52.486;-1.890;2024-02-23T09:19:45;10.90;64.70
67881;SHT31;54680;52.486;-1.890;2024-02-23T09:22:11;11.04;64.06
67881;SHT31;54680;52.486;-1.890;2024-02-23T09:24:40;10.97;62.94
67881;SHT31;54680;52.486;-1.890;2024-02-23T09:27:06;11.12;63.13
67881;SHT31;54680;52.486;-1.890;2024-02-23T09:29:32;11.05;62.94
67881;SHT31;54680;52.486;-1.890;2024-02-23T09:31:58;11.43;61.64
67881;SHT31;54680;52.486;-1.890;2024-02-23T09:34:24;11.15;62.56
67881;SHT31;54680;52.486;-1.890;2024-02-23T09:36:50;10.97;61.75
67881;SHT31;54680;52.486;-1.890;2024-02-23T09:39:15;10.87;62.38
67881;SHT31;54680;52.486;-1.890;2024-02-23T09:41:42;11.34;60.68
67881;SHT31;54680;52.486;-1.890;2024-02-23T09:44:08;11.24;61.41
67881;SHT31;54680;52.486;-1.890;2024-02-23T09:46:37;11.24;60.90
67881;SHT31;54680;52.486;-1.890;2024-02-23T09:49:04;11.18;61.07
67881;SHT31;54680;52.486;-1.890;2024-02-23T09:51:33;10.88;62.33
67881;SHT31;54680;52.486;-1.890;2024-02-23T09:53:59;11.34;60.96
67881;SHT31;54680;52.486;-1.890;2024-02-23T09:56:27;11.36;60.25
67881;SHT31;54680;52.486;-1.890;2024-02-23T09:58:55;11.90;59.41
67881;SHT31;54680;52.486;-1.890;2024-02-23T10:01:27;11.75;58.84
67881;SHT31;54680;52.486;-1.890;2024-02-23T10:03:57;11.35;59.10
67881;SHT31;54680;52.486;-1.890;2024-02-23T10:06:24;11.25;61.48
67881;SHT31;54680;52.486;-1.890;2024-02-23T10:08:50;9.31;64.88
67881;SHT31;54680;52.486;-1.890;2024-02-23T10:11:19;10.03;66.04
67881;SHT31;54680;52.486;-1.890;2024-02-23T10:13:47;10.85;61.21
67881;SHT31;54680;52.486;-1.890;2024-02-23T10:16:15;11.25;61.76
67881;SHT31;54680;52.486;-1.890;2024-02-23T10:18:41;11.00;60.67
67881;SHT31;54680;52.486;-1.890;2024-02-23T10:21:07;11.82;59.19
67881;SHT31;54680;52.486;-1.890;2024-02-23T10:23:33;12.31;58.39
67881;SHT31;54680;52.486;-1.890;2024-02-23T10:25:58;11.93;60.09
67881;SHT31;54680;52.486;-1.890;2024-02-23T10:28:24;11.00;58.50
67881;SHT31;54680;52.486;-1.890;2024-02-23T10:30:49;12.62;56.83
67881;SHT31;54680;52.486;-1.890;2024-02-23T10:33:15;12.33;58.02
67881;SHT31;54680;52.486;-1.890;2024-02-23T10:35:42;12.38;57.05
67881;SHT31;54680;52.486;-1.890;2024-02-23T10:38:10;11.87;57.44
67881;SHT31;54680;52.486;-1.890;2024-02-23T10:40:38;11.91;56.75
67881;SHT31;54680;52.486;-1.890;2024-02-23T10:43:11;12.01;58.59
67881;SHT31;54680;52.486;-1.890;2024-02-23T10:45:38;11.80;58.08
67881;SHT31;54680;52.486;-1.890;2024-02-23T10:48:08;12.68;54.47
67881;SHT31;54680;52.486;-1.890;2024-02-23T10:50:36;11.82;57.02
67881;SHT31;54680;52.486;-1.890;2024-02-23T10:53:04;10.29;62.76
67881;SHT31;54680;52.486;-1.890;2024-02-23T10:55:32;10.98;59.27
67881;SHT31;54680;52.486;-1.890;2024-02-23T10:57:58;10.33;60.79
67881;SHT31;54680;52.486;-1.890;2024-02-23T11:00:24;11.38;60.40
67881;SHT31;54680;52.486;-1.890;2024-02-23T11:02:51;11.72;57.21
67881;SHT31;54680;52.486;-1.890;2024-02-23T11:05:18;11.96;55.81
67881;SHT31;54680;52.486;-1.890;2024-02-23T11:07:47;10.19;60.31
67881;SHT31;54680;52.486;-1.890;2024-02-23T11:10:16;9.67;62.19
67881;SHT31;54680;52.486;-1.890;2024-02-23T11:12:43;9.88;60.03
67881;SHT31;54680;52.486;-1.890;2024-02-23T11:15:09;9.99;59.09
67881;SHT31;54680;52.486;-1.890;2024-02-23T11:17:36;9.59;61.50
67881;SHT31;54680;52.486;-1.890;2024-02-23T11:20:05;9.41;62.38
67881;SHT31;54680;52.486;-1.890;2024-02-23T11:22:33;9.42;62.95
67881;SHT31;54680;52.486;-1.890;2024-02-23T11:25:02;9.30;62.52
67881;SHT31;54680;52.486;-1.890;2024-02-23T11:27:33;9.75;62.88
67881;SHT31;54680;52.486;-1.890;2024-02-23T11:30:09;9.00;62.68
67881;SHT31;54680;52.486;-1.890;2024-02-23T11:32:42;8.87;64.78
67881;SHT31;54680;52.486;-1.890;2024-02-23T11:35:10;9.30;65.31
67881;SHT31;54680;52.486;-1.890;2024-02-23T11:37:56;9.20;66.23
67881;SHT31;54680;52.486;-1.890;2024-02-23T11:40:30;9.00;66.15
67881;SHT31;54680;52.486;-1.890;2024-02-23T11:42:55;8.29;68.28
67881;SHT31;54680;52.486;-1.890;2024-02-23T11:45:21;8.27;68.78
67881;SHT31;54680;52.486;-1.890;2024-02-23T11:47:54;8.17;69.56
67881;SHT31;54680;52.486;-1.890;2024-02-23T11:50:20;8.35;69.25
67881;SHT31;54680;52.486;-1.890;2024-02-23T11:52:46;7.84;69.74
67881;SHT31;54680;52.486;-1.890;2024-02-23T11:55:18;8.32;70.26
67881;SHT31;54680;52.486;-1.890;2024-02-23T11:57:45;8.80;67.30
67881;SHT31;54680;52.486;-1.890;2024-02-23T12:00:11;9.41;65.79
67881;SHT31;54680;52.486;-1.890;2024-02-23T12:02:36;9.91;64.76
67881;SHT31;54680;52.486;-1.890;2024-02-23T12:05:03;9.95;67.32
67881;SHT31;54680;52.486;-1.890;2024-02-23T12:07:30;8.83;68.04
67881;SHT31;54680;52.486;-1.890;2024-02-23T12:10:00;8.86;67.20
67881;SHT31;54680;52.486;-1.890;2024-02-23T12:12:26;7.88;69.32
67881;SHT31;54680;52.486;-1.890;2024-02-23T12:14:55;8.22;69.99
67881;SHT31;54680;52.486;-1.890;2024-02-23T12:17:31;8.11;69.45
67881;SHT31;54680;52.486;-1.890;2024-02-23T12:20:00;8.28;69.62
67881;SHT31;54680;52.486;-1.890;2024-02-23T12:22:28;7.93;68.65
67881;SHT31;54680;52.486;-1.890;2024-02-23T12:25:00;8.01;68.97
67881;SHT31;54680;52.486;-1.890;2024-02-23T12:27:26;7.74;69.86
67881;SHT31;54680;52.486;-1.890;2024-02-23T12:29:52;7.83;69.92
67881;SHT31;54680;52.486;-1.890;2024-02-23T12:32:21;7.94;72.20
67881;SHT31;54680;52.486;-1.890;2024-02-23T12:34:47;7.71;71.82
67881;SHT31;54680;52.486;-1.890;2024-02-23T12:37:17;7.37;73.43
67881;SHT31;54680;52.486;-1.890;2024-02-23T12:39:43;7.43;72.85
67881;SHT31;54680;52.486;-1.890;2024-02-23T12:42:09;7.52;72.82
67881;SHT31;54680;52.486;-1.890;2024-02-23T12:44:35;7.56;73.05
67881;SHT31;54680;52.486;-1.890;2024-02-23T12:47:00;7.59;72.16
67881;SHT31;54680;52.486;-1.890;2024-02-23T12:49:26;7.46;72.34
67881;SHT31;54680;52.486;-1.890;2024-02-23T12:51:51;7.78;71.67
67881;SHT31;54680;52.486;-1.890;2024-02-23T12:54:28;7.97;71.69
67881;SHT31;54680;52.486;-1.890;2024-02-23T12:56:54;8.07;70.36
67881;SHT31;54680;52.486;-1.890;2024-02-23T12:59:23;7.99;73.03
67881;SHT31;54680;52.486;-1.890;2024-02-23T13:01:49;8.97;66.88
67881;SHT31;54680;52.486;-1.890;2024-02-23T13:04:15;9.19;65.90
67881;SHT31;54680;52.486;-1.890;2024-02-23T13:06:40;9.37;63.91
67881;SHT31;54680;52.486;-1.890;2024-02-23T13:09:06;8.76;66.09
67881;SHT31;54680;52.486;-1.890;2024-02-23T13:11:38;10.53;62.39
67881;SHT31;54680;52.486;-1.890;2024-02-23T13:14:03;10.12;62.72
67881;SHT31;54680;52.486;-1.890;2024-02-23T13:16:29;9.57;64.16
67881;SHT31;54680;52.486;-1.890;2024-02-23T13:18:56;9.40;63.10
67881;SHT31;54680;52.486;-1.890;2024-02-23T13:21:22;8.62;65.27
67881;SHT31;54680;52.486;-1.890;2024-02-23T13:23:49;9.42;64.82
67881;SHT31;54680;52.486;-1.890;2024-02-23T13:26:14;8.31;64.30
67881;SHT31;54680;52.486;-1.890;2024-02-23T13:28:43;8.29;64.96
67881;SHT31;54680;52.486;-1.890;2024-02-23T13:31:09;8.34;65.48
67881;SHT31;54680;52.486;-1.890;2024-02-23T13:33:36;8.50;64.88
67881;SHT31;54680;52.486;-1.890;2024-02-23T13:36:02;8.79;65.76
67881;SHT31;54680;52.486;-1.890;2024-02-23T13:38:28;7.65;68.34
67881;SHT31;54680;52.486;-1.890;2024-02-23T13:40:53;7.63;70.01
67881;SHT31;54680;52.486;-1.890;2024-02-23T13:43:18;7.08;71.81
67881;SHT31;54680;52.486;-1.890;2024-02-23T13:45:52;6.63;74.12
67881;SHT31;54680;52.486;-1.890;2024-02-23T13:48:19;6.29;75.99
67881;SHT31;54680;52.486;-1.890;2024-02-23T13:50:46;6.06;80.02
67881;SHT31;54680;52.486;-1.890;2024-02-23T13:53:15;5.81;82.51
67881;SHT31;54680;52.486;-1.890;2024-02-23T13:55:41;5.52;82.68
67881;SHT31;54680;52.486;-1.890;2024-02-23T13:58:10;5.37;84.11
67881;SHT31;54680;52.486;-1.890;2024-02-23T14:00:36;5.26;84.33
67881;SHT31;54680;52.486;-1.890;2024-02-23T14:03:02;5.24;84.31
67881;SHT31;54680;52.486;-1.890;2024-02-23T14:05:28;5.11;85.63
67881;SHT31;54680;52.486;-1.890;2024-02-23T14:07:55;5.13;86.18
67881;SHT31;54680;52.486;-1.890;2024-02-23T14:10:21;5.23;86.79
67881;SHT31;54680;52.486;-1.890;2024-02-23T14:12:47;5.21;86.64
67881;SHT31;54680;52.486;-1.890;2024-02-23T14:15:14;5.01;85.14
67881;SHT31;54680;52.486;-1.890;2024-02-23T14:17:41;5.04;85.45
67881;SHT31;54680;52.486;-1.890;2024-02-23T14:20:07;4.86;87.62
67881;SHT31;54680;52.486;-1.890;2024-02-23T14:22:33;4.79;86.61
67881;SHT31;54680;52.486;-1.890;2024-02-23T14:24:59;4.72;86.54
67881;SHT31;54680;52.486;-1.890;2024-02-23T14:27:26;4.75;87.08
67881;SHT31;54680;52.486;-1.890;2024-02-23T14:29:53;4.89;87.27
67881;SHT31;54680;52.486;-1.890;2024-02-23T14:32:19;4.97;86.25
67881;SHT31;54680;52.486;-1.890;2024-02-23T14:34:47;5.11;86.49
67881;SHT31;54680;52.486;-1.890;2024-02-23T14:37:13;5.14;86.15
67881;SHT31;54680;52.486;-1.890;2024-02-23T14:39:39;5.17;86.54
67881;SHT31;54680;52.486;-1.890;2024-02-23T14:42:04;5.34;85.40
67881;SHT31;54680;52.486;-1.890;2024-02-23T14:44:34;5.18;87.09
67881;SHT31;54680;52.486;-1.890;2024-02-23T14:46:59;5.58;86.13
67881;SHT31;54680;52.486;-1.890;2024-02-23T14:49:25;5.47;84.58
67881;SHT31;54680;52.486;-1.890;2024-02-23T14:51:51;5.54;84.00
67881;SHT31;54680;52.486;-1.890;2024-02-23T14:54:16;5.75;84.05
67881;SHT31;54680;52.486;-1.890;2024-02-23T14:56:42;6.17;82.76
67881;SHT31;54680;52.486;-1.890;2024-02-23T14:59:08;6.03;81.62
67881;SHT31;54680;52.486;-1.890;2024-02-23T15:01:39;5.89;80.44
67881;SHT31;54680;52.486;-1.890;2024-02-23T15:04:08;6.24;82.34
67881;SHT31;54680;52.486;-1.890;2024-02-23T15:06:34;6.32;81.35
67881;SHT31;54680;52.486;-1.890;2024-02-23T15:09:00;6.48;81.64
67881;SHT31;54680;52.486;-1.890;2024-02-23T15:11:26;6.51;81.30
67881;SHT31;54680;52.486;-1.890;2024-02-23T15:13:52;6.07;79.48
67881;SHT31;54680;52.486;-1.890;2024-02-23T15:16:24;5.79;80.56
67881;SHT31;54680;52.486;-1.890;2024-02-23T15:18:50;6.14;83.00
67881;SHT31;54680;52.486;-1.890;2024-02-23T15:21:17;6.13;80.98
67881;SHT31;54680;52.486;-1.890;2024-02-23T15:23:43;6.02;80.61
67881;SHT31;54680;52.486;-1.890;2024-02-23T15:26:09;6.14;80.58
67881;SHT31;54680;52.486;-1.890;2024-02-23T15:28:36;5.98;80.14